createdAt,value
2024-02-23T00:01:36.811Z,62.19
2024-02-23T00:06:41.710Z,61.87
2024-02-23T00:11:49.254Z,61.38
2024-02-23T00:16:53.208Z,61.54
2024-02-23T00:21:56.840Z,61.88
2024-02-23T00:27:00.638Z,61.54
2024-02-23T00:32:05.753Z,61.73
2024-02-23T00:37:09.768Z,61.66
2024-02-23T00:42:13.454Z,61.78
2024-02-23T00:47:17.234Z,61.68
2024-02-23T00:52:21.320Z,61.79
2024-02-23T00:57:29.362Z,61.90
2024-02-23T01:02:35.007Z,61.77
2024-02-23T01:07:38.815Z,61.70
2024-02-23T01:13:02.914Z,61.69
2024-02-23T01:18:09.435Z,61.85
2024-02-23T01:23:13.369Z,61.69
2024-02-23T01:28:17.006Z,61.52
2024-02-23T01:33:20.967Z,60.91
2024-02-23T01:38:26.920Z,61.41
2024-02-23T01:43:30.632Z,61.30
2024-02-23T01:48:35.500Z,61.40
2024-02-23T01:53:39.597Z,61.47
2024-02-23T01:58:43.691Z,61.12
2024-02-23T02:03:47.466Z,61.44
2024-02-23T02:08:51.557Z,61.40
2024-02-23T02:13:55.382Z,61.43
2024-02-23T02:18:59.188Z,61.55
2024-02-23T02:24:03.042Z,61.26
2024-02-23T02:29:06.940Z,61.21
2024-02-23T02:34:15.075Z,60.75
2024-02-23T02:39:18.925Z,60.92
2024-02-23T02:44:22.810Z,60.75
2024-02-23T02:49:26.738Z,60.75
2024-02-23T02:54:30.544Z,61.11
2024-02-23T02:59:38.299Z,60.70
2024-02-23T03:04:49.779Z,60.38
2024-02-23T03:09:54.111Z,60.65
2024-02-23T03:14:57.791Z,60.34
2024-02-23T03:20:01.730Z,60.24
2024-02-23T03:25:11.991Z,59.89
2024-02-23T03:30:17.370Z,60.13
2024-02-23T03:35:21.272Z,60.66
2024-02-23T03:40:24.875Z,60.09
2024-02-23T03:45:28.540Z,60.87
2024-02-23T03:50:33.090Z,60.14
2024-02-23T03:55:36.836Z,60.24
2024-02-23T04:00:40.778Z,60.16
2024-02-23T04:05:44.775Z,60.04
2024-02-23T04:10:48.674Z,60.29
2024-02-23T04:15:52.512Z,60.10
2024-02-23T04:20:56.144Z,60.29
2024-02-23T04:26:01.901Z,59.81
2024-02-23T04:31:06.551Z,60.26
2024-02-23T04:36:10.583Z,59.71
2024-02-23T04:41:14.570Z,59.52
2024-02-23T04:46:18.276Z,59.56
2024-02-23T04:51:24.711Z,59.50
2024-02-23T04:56:28.536Z,59.57
2024-02-23T05:01:38.799Z,59.51
2024-02-23T05:06:45.062Z,59.50
2024-02-23T05:11:49.235Z,59.12
2024-02-23T05:16:53.119Z,59.44
2024-02-23T05:21:57.038Z,59.51
2024-02-23T05:27:03.942Z,59.52
2024-02-23T05:32:07.957Z,59.37
2024-02-23T05:37:11.831Z,59.32
2024-02-23T05:42:15.802Z,59.83
2024-02-23T05:47:19.524Z,59.64
2024-02-23T05:52:23.574Z,59.62
2024-02-23T05:57:28.726Z,59.60
2024-02-23T06:02:32.839Z,59.91
2024-02-23T06:07:36.717Z,59.77
2024-02-23T06:12:40.677Z,59.97
2024-02-23T06:17:44.603Z,60.10
2024-02-23T06:22:48.326Z,60.25
2024-02-23T06:27:52.198Z,60.08
2024-02-23T06:32:55.986Z,59.94
2024-02-23T06:37:59.887Z,60.07
2024-02-23T06:43:04.524Z,59.81
2024-02-23T06:48:08.742Z,59.96
2024-02-23T06:53:12.683Z,59.72
2024-02-23T06:58:18.691Z,59.97
2024-02-23T07:03:22.622Z,60.06
2024-02-23T07:08:26.784Z,60.11
2024-02-23T07:13:32.102Z,59.73
2024-02-23T07:18:36.000Z,59.95
2024-02-23T07:23:39.916Z,60.03
2024-02-23T07:28:43.859Z,59.98
2024-02-23T07:33:47.853Z,59.76
2024-02-23T07:38:51.752Z,59.93
2024-02-23T07:43:55.578Z,59.75
2024-02-23T07:48:59.384Z,60.05
2024-02-23T07:54:04.079Z,59.64
2024-02-23T07:59:08.010Z,59.82
2024-02-23T08:04:12.162Z,60.06
2024-02-23T08:09:16.141Z,59.91
2024-02-23T08:14:19.891Z,59.72
2024-02-23T08:19:24.482Z,60.18
2024-02-23T08:24:28.173Z,59.76
2024-02-23T08:29:32.027Z,60.03
2024-02-23T08:34:36.123Z,60.21
2024-02-23T08:39:39.885Z,60.01
2024-02-23T08:44:43.899Z,60.11
2024-02-23T08:49:48.304Z,60.21
2024-02-23T08:54:53.725Z,59.83
2024-02-23T09:00:00.015Z,59.89
2024-02-23T09:05:04.889Z,60.03
2024-02-23T09:10:09.032Z,60.08
2024-02-23T09:15:13.091Z,60.50
2024-02-23T09:20:17.721Z,59.97
2024-02-23T09:25:21.611Z,60.36
2024-02-23T09:30:25.451Z,60.15
2024-02-23T09:35:29.210Z,60.51
2024-02-23T09:40:33.194Z,60.74
2024-02-23T09:45:37.131Z,60.53
2024-02-23T09:50:42.900Z,60.19
2024-02-23T09:55:47.701Z,60.52
2024-02-23T10:00:52.897Z,60.22
2024-02-23T10:05:56.651Z,60.23
2024-02-23T10:11:02.999Z,60.64
2024-02-23T10:16:15.090Z,61.00
2024-02-23T10:21:20.349Z,60.71
2024-02-23T10:26:24.763Z,60.31
2024-02-23T10:31:30.157Z,60.59
2024-02-23T10:36:34.152Z,61.04
2024-02-23T10:41:41.323Z,60.85
2024-02-23T10:46:47.139Z,60.46
2024-02-23T10:51:53.944Z,60.84
2024-02-23T10:56:58.716Z,61.06
2024-02-23T11:02:03.631Z,60.91
2024-02-23T11:07:16.081Z,61.48
2024-02-23T11:12:31.717Z,61.17
2024-02-23T11:17:41.556Z,61.48
2024-02-23T11:22:45.447Z,61.27
2024-02-23T11:27:53.163Z,61.63
2024-02-23T11:33:01.609Z,61.38
2024-02-23T11:38:07.761Z,61.30
2024-02-23T11:43:12.533Z,61.77
2024-02-23T11:48:16.572Z,61.56
2024-02-23T11:53:23.247Z,62.16
2024-02-23T11:58:26.848Z,61.38
2024-02-23T12:03:32.319Z,61.83
2024-02-23T12:08:40.267Z,61.91
2024-02-23T12:13:44.644Z,62.20
2024-02-23T12:18:57.447Z,61.95
2024-02-23T12:24:01.153Z,62.08
2024-02-23T12:29:05.971Z,61.97
2024-02-23T12:34:17.460Z,62.11
2024-02-23T12:39:21.169Z,62.10
2024-02-23T12:44:25.268Z,62.27
2024-02-23T12:49:29.319Z,62.31
2024-02-23T12:54:33.177Z,62.27
2024-02-23T12:59:36.936Z,62.55
2024-02-23T13:04:41.048Z,62.36
2024-02-23T13:09:45.108Z,62.49
2024-02-23T13:14:48.745Z,62.49
2024-02-23T13:20:00.894Z,62.63
2024-02-23T13:25:12.395Z,62.45
2024-02-23T13:30:16.659Z,61.88
2024-02-23T13:35:20.598Z,62.12
2024-02-23T13:40:24.426Z,62.68
2024-02-23T13:45:28.421Z,62.50
2024-02-23T13:50:32.589Z,62.76
2024-02-23T13:55:36.444Z,62.58
2024-02-23T14:00:40.195Z,62.28
2024-02-23T14:05:46.736Z,62.06
2024-02-23T14:10:50.722Z,62.01
2024-02-23T14:15:55.764Z,62.32
2024-02-23T14:20:59.739Z,62.76
2024-02-23T14:26:03.862Z,62.23
2024-02-23T14:31:07.571Z,62.73
2024-02-23T14:36:11.561Z,62.27
2024-02-23T14:41:15.418Z,62.60
2024-02-23T14:46:19.339Z,62.50
2024-02-23T14:51:23.458Z,62.61
2024-02-23T14:56:27.146Z,62.47
2024-02-23T15:01:31.141Z,62.17
2024-02-23T15:06:35.243Z,62.74
2024-02-23T15:11:39.000Z,62.48
2024-02-23T15:16:43.233Z,62.48
2024-02-23T15:21:46.971Z,62.10
2024-02-23T15:26:50.696Z,62.49
2024-02-23T15:31:54.616Z,62.14
2024-02-23T15:36:58.264Z,62.18
2024-02-23T15:42:02.978Z,62.88
2024-02-23T15:47:07.074Z,62.57
2024-02-23T15:52:11.162Z,62.00
2024-02-23T15:57:15.024Z,62.71
2024-02-23T16:02:19.060Z,62.52
2024-02-23T16:07:22.909Z,62.37
2024-02-23T16:12:27.175Z,62.50
2024-02-23T16:17:30.965Z,62.63
2024-02-23T16:22:35.109Z,62.43
2024-02-23T16:27:40.566Z,62.17
2024-02-23T16:32:44.440Z,62.60
2024-02-23T16:37:48.302Z,62.23
2024-02-23T16:42:52.091Z,62.14
2024-02-23T16:47:56.665Z,62.70
2024-02-23T16:53:01.526Z,62.58
2024-02-23T16:58:05.840Z,62.49
2024-02-23T17:03:10.229Z,61.95
2024-02-23T17:08:14.781Z,62.19
2024-02-23T17:13:18.707Z,62.19
2024-02-23T17:18:25.326Z,62.56
2024-02-23T17:23:29.072Z,61.52
2024-02-23T17:28:33.352Z,62.19
2024-02-23T17:33:37.361Z,62.30
2024-02-23T17:38:41.299Z,62.08
2024-02-23T17:43:45.173Z,62.16
2024-02-23T17:48:48.800Z,62.22
2024-02-23T17:53:54.507Z,62.54
2024-02-23T17:58:58.527Z,61.93
2024-02-23T18:04:02.569Z,61.96
2024-02-23T18:09:07.165Z,62.19
2024-02-23T18:14:11.194Z,62.12
2024-02-23T18:19:15.108Z,62.08
2024-02-23T18:24:18.744Z,62.35
2024-02-23T18:29:22.645Z,61.90
2024-02-23T18:34:26.689Z,62.38
2024-02-23T18:39:30.653Z,61.96
2024-02-23T18:44:34.489Z,62.22
2024-02-23T18:49:38.702Z,61.83
2024-02-23T18:54:42.865Z,62.09
2024-02-23T18:59:46.909Z,62.74
2024-02-23T19:04:50.625Z,62.29
2024-02-23T19:09:54.512Z,62.32
2024-02-23T19:14:58.280Z,62.07
2024-02-23T19:20:02.214Z,62.12
2024-02-23T19:25:07.132Z,62.02
2024-02-23T19:30:14.069Z,62.08
2024-02-23T19:35:17.803Z,62.15
2024-02-23T19:40:25.617Z,62.06
2024-02-23T19:45:29.397Z,61.90
2024-02-23T19:50:33.303Z,62.04
2024-02-23T19:55:37.212Z,62.25
2024-02-23T20:00:41.010Z,61.89
2024-02-23T20:05:44.904Z,62.33
2024-02-23T20:10:48.715Z,62.29
2024-02-23T20:15:54.564Z,62.24
2024-02-23T20:20:58.272Z,62.56
2024-02-23T20:26:02.141Z,62.07
2024-02-23T20:31:08.489Z,62.55
2024-02-23T20:36:14.823Z,62.46
2024-02-23T20:41:20.857Z,62.34
2024-02-23T20:46:25.980Z,62.42
2024-02-23T20:51:30.394Z,62.41
2024-02-23T20:56:36.221Z,62.13
2024-02-23T21:01:40.105Z,62.08
2024-02-23T21:06:44.233Z,62.52
2024-02-23T21:11:47.835Z,62.42
2024-02-23T21:16:51.699Z,62.29
2024-02-23T21:21:55.602Z,62.24
2024-02-23T21:26:59.260Z,62.64
2024-02-23T21:32:03.191Z,62.88
2024-02-23T21:37:08.803Z,62.58
2024-02-23T21:42:12.480Z,62.85
2024-02-23T21:47:16.443Z,62.40
2024-02-23T21:52:20.108Z,62.58
2024-02-23T21:57:27.465Z,62.29
2024-02-23T22:02:32.036Z,62.56
2024-02-23T22:07:38.232Z,62.41
2024-02-23T22:12:44.148Z,62.75
2024-02-23T22:17:48.688Z,62.85
2024-02-23T22:22:52.506Z,63.04
2024-02-23T22:27:56.368Z,62.85
2024-02-23T22:33:00.465Z,62.82
2024-02-23T22:38:05.045Z,63.17
2024-02-23T22:43:08.925Z,63.37
2024-02-23T22:48:14.556Z,62.87
2024-02-23T22:53:18.508Z,62.77
2024-02-23T22:58:23.000Z,62.81
2024-02-23T23:03:26.989Z,63.04
2024-02-23T23:08:31.105Z,62.88
2024-02-23T23:13:34.915Z,63.07
2024-02-23T23:18:38.761Z,63.25
2024-02-23T23:23:42.604Z,63.42
2024-02-23T23:28:47.071Z,63.17
2024-02-23T23:33:53.461Z,63.39
2024-02-23T23:38:58.063Z,63.49
2024-02-23T23:44:01.660Z,62.82
2024-02-23T23:49:05.474Z,63.07
2024-02-23T23:54:09.260Z,63.05
2024-02-23T23:59:13.841Z,63.00
